KMFE/MFE METAR and TAF weather

Enter ICAO airport designator
Station Type Date Time Source
KMFE METAR 2019/12/12 08:53 UTC NOAA

KMFE 120853Z AUTO 00000KT 10SM CLR 07/05 A3032 RMK AO2 SLP265 T00720050 56019


Station Type Date Time Source
KMFE Decoded METAR 2019/12/12 08:53 UTC NOAA

MCALLEN MILLER INTERNATIONAL AIRPORT , TX, United States (KMFE) 26-11N 98-15W 38M
Dec 12, 2019 - 03:53 AM EST / 2019.12.12 0853 UTC
Wind: Calm:0
Visibility: 10 mile(s):0
Sky conditions: clear
Temperature: 45.0 F (7.2 C)
Dew Point: 41.0 F (5.0 C)
Relative Humidity: 85%
Pressure (altimeter): 30.32 in. Hg (1026 hPa)
Pressure tendency: 0.06 inches (1.9 hPa) lower than three hours ago
ob: KMFE 120853Z AUTO 00000KT 10SM CLR 07/05 A3032 RMK AO2 SLP265 T00720050 56019
cycle: 9

Station Type Date Time Source
KMFE TAF 2019/12/12 06:22 UTC NOAA

TAF KMFE 120520Z 1206/1306 36006KT P6SM BKN050

Example: see airport list